sensor_id;sensor_type;location;lat;lon;timestamp;P1;durP1;ratioP1;P2;durP2;ratioP2
12467;SDS011;57850;52.922;6.256;2022-11-09T00:00:01;4.65;;;2.70;;
12467;SDS011;57850;52.922;6.256;2022-11-09T00:02:28;3.97;;;2.80;;
12467;SDS011;57850;52.922;6.256;2022-11-09T00:04:55;7.00;;;2.78;;
12467;SDS011;57850;52.922;6.256;2022-11-09T00:07:24;6.35;;;3.38;;
12467;SDS011;57850;52.922;6.256;2022-11-09T00:09:51;7.25;;;3.13;;
12467;SDS011;57850;52.922;6.256;2022-11-09T00:12:18;6.35;;;3.45;;
12467;SDS011;57850;52.922;6.256;2022-11-09T00:14:44;6.03;;;3.55;;
12467;SDS011;57850;52.922;6.256;2022-11-09T00:17:11;5.18;;;3.30;;
12467;SDS011;57850;52.922;6.256;2022-11-09T00:19:37;6.00;;;3.97;;
12467;SDS011;57850;52.922;6.256;2022-11-09T00:22:04;5.88;;;3.63;;
12467;SDS011;57850;52.922;6.256;2022-11-09T00:24:32;6.88;;;3.70;;
12467;SDS011;57850;52.922;6.256;2022-11-09T00:26:59;8.60;;;3.78;;
12467;SDS011;57850;52.922;6.256;2022-11-09T00:29:27;7.93;;;3.60;;
12467;SDS011;57850;52.922;6.256;2022-11-09T00:31:53;6.97;;;4.70;;
12467;SDS011;57850;52.922;6.256;2022-11-09T00:34:20;6.43;;;4.00;;
12467;SDS011;57850;52.922;6.256;2022-11-09T00:36:46;7.18;;;4.32;;
12467;SDS011;57850;52.922;6.256;2022-11-09T00:39:13;7.50;;;4.00;;
12467;SDS011;57850;52.922;6.256;2022-11-09T00:41:41;8.52;;;4.32;;
12467;SDS011;57850;52.922;6.256;2022-11-09T00:44:07;9.32;;;4.15;;
12467;SDS011;57850;52.922;6.256;2022-11-09T00:46:34;8.88;;;3.78;;
12467;SDS011;57850;52.922;6.256;2022-11-09T00:49:00;8.32;;;3.80;;
12467;SDS011;57850;52.922;6.256;2022-11-09T00:51:27;10.52;;;4.28;;
12467;SDS011;57850;52.922;6.256;2022-11-09T00:53:54;7.18;;;3.47;;
12467;SDS011;57850;52.922;6.256;2022-11-09T00:56:22;9.07;;;3.65;;
12467;SDS011;57850;52.922;6.256;2022-11-09T00:58:52;6.28;;;3.28;;
12467;SDS011;57850;52.922;6.256;2022-11-09T01:01:20;11.45;;;3.70;;
12467;SDS011;57850;52.922;6.256;2022-11-09T01:03:47;9.85;;;3.45;;
12467;SDS011;57850;52.922;6.256;2022-11-09T01:06:14;11.43;;;3.47;;
12467;SDS011;57850;52.922;6.256;2022-11-09T01:08:41;10.38;;;4.05;;
12467;SDS011;57850;52.922;6.256;2022-11-09T01:11:08;11.93;;;4.03;;
12467;SDS011;57850;52.922;6.256;2022-11-09T01:13:35;9.70;;;3.30;;
12467;SDS011;57850;52.922;6.256;2022-11-09T01:16:05;10.65;;;3.50;;
12467;SDS011;57850;52.922;6.256;2022-11-09T01:18:33;7.07;;;2.97;;
12467;SDS011;57850;52.922;6.256;2022-11-09T01:21:00;7.18;;;3.53;;
12467;SDS011;57850;52.922;6.256;2022-11-09T01:23:28;8.30;;;2.90;;
12467;SDS011;57850;52.922;6.256;2022-11-09T01:25:58;6.53;;;3.75;;
12467;SDS011;57850;52.922;6.256;2022-11-09T01:28:26;7.45;;;3.47;;
12467;SDS011;57850;52.922;6.256;2022-11-09T01:30:53;6.38;;;2.85;;
12467;SDS011;57850;52.922;6.256;2022-11-09T01:33:21;11.20;;;3.70;;
12467;SDS011;57850;52.922;6.256;2022-11-09T01:35:48;7.55;;;3.50;;
12467;SDS011;57850;52.922;6.256;2022-11-09T01:38:14;10.55;;;3.15;;
12467;SDS011;57850;52.922;6.256;2022-11-09T01:40:41;8.23;;;3.45;;
12467;SDS011;57850;52.922;6.256;2022-11-09T01:43:13;11.85;;;3.42;;
12467;SDS011;57850;52.922;6.256;2022-11-09T01:45:41;16.55;;;4.10;;
12467;SDS011;57850;52.922;6.256;2022-11-09T01:48:10;7.43;;;3.20;;
12467;SDS011;57850;52.922;6.256;2022-11-09T01:50:40;7.47;;;3.17;;
12467;SDS011;57850;52.922;6.256;2022-11-09T01:53:13;8.85;;;3.17;;
12467;SDS011;57850;52.922;6.256;2022-11-09T01:55:43;8.15;;;3.35;;
12467;SDS011;57850;52.922;6.256;2022-11-09T01:58:13;18.08;;;3.58;;
12467;SDS011;57850;52.922;6.256;2022-11-09T02:00:43;10.15;;;3.00;;
12467;SDS011;57850;52.922;6.256;2022-11-09T02:03:14;8.20;;;2.80;;
12467;SDS011;57850;52.922;6.256;2022-11-09T02:05:47;12.30;;;3.20;;
12467;SDS011;57850;52.922;6.256;2022-11-09T02:08:16;8.95;;;2.78;;
12467;SDS011;57850;52.922;6.256;2022-11-09T02:10:46;7.85;;;3.00;;
12467;SDS011;57850;52.922;6.256;2022-11-09T02:13:18;10.18;;;3.13;;
12467;SDS011;57850;52.922;6.256;2022-11-09T02:15:47;8.98;;;3.10;;
12467;SDS011;57850;52.922;6.256;2022-11-09T02:18:15;9.77;;;3.10;;
12467;SDS011;57850;52.922;6.256;2022-11-09T02:20:46;8.43;;;2.67;;
12467;SDS011;57850;52.922;6.256;2022-11-09T02:23:14;9.75;;;3.17;;
12467;SDS011;57850;52.922;6.256;2022-11-09T02:25:42;9.88;;;3.40;;
12467;SDS011;57850;52.922;6.256;2022-11-09T02:28:12;6.50;;;2.80;;
12467;SDS011;57850;52.922;6.256;2022-11-09T02:30:39;7.32;;;3.15;;
12467;SDS011;57850;52.922;6.256;2022-11-09T02:33:06;10.88;;;3.03;;
12467;SDS011;57850;52.922;6.256;2022-11-09T02:35:33;7.55;;;2.80;;
12467;SDS011;57850;52.922;6.256;2022-11-09T02:38:01;8.45;;;2.70;;
12467;SDS011;57850;52.922;6.256;2022-11-09T02:40:28;10.93;;;3.15;;
12467;SDS011;57850;52.922;6.256;2022-11-09T02:42:57;11.38;;;2.65;;
12467;SDS011;57850;52.922;6.256;2022-11-09T02:45:25;5.43;;;2.75;;
12467;SDS011;57850;52.922;6.256;2022-11-09T02:47:53;9.65;;;3.22;;
12467;SDS011;57850;52.922;6.256;2022-11-09T02:50:19;9.45;;;3.13;;
12467;SDS011;57850;52.922;6.256;2022-11-09T02:52:46;7.63;;;3.10;;
12467;SDS011;57850;52.922;6.256;2022-11-09T02:55:14;14.75;;;3.63;;
12467;SDS011;57850;52.922;6.256;2022-11-09T02:57:40;8.43;;;2.60;;
12467;SDS011;57850;52.922;6.256;2022-11-09T03:00:07;10.02;;;2.97;;
12467;SDS011;57850;52.922;6.256;2022-11-09T03:02:35;12.27;;;3.53;;
12467;SDS011;57850;52.922;6.256;2022-11-09T03:05:02;10.82;;;2.72;;
12467;SDS011;57850;52.922;6.256;2022-11-09T03:07:28;7.40;;;3.35;;
12467;SDS011;57850;52.922;6.256;2022-11-09T03:09:57;7.45;;;2.90;;
12467;SDS011;57850;52.922;6.256;2022-11-09T03:12:24;14.32;;;3.30;;
12467;SDS011;57850;52.922;6.256;2022-11-09T03:14:54;8.65;;;2.92;;
12467;SDS011;57850;52.922;6.256;2022-11-09T03:17:22;12.52;;;3.50;;
12467;SDS011;57850;52.922;6.256;2022-11-09T03:19:48;11.43;;;3.13;;
12467;SDS011;57850;52.922;6.256;2022-11-09T03:22:15;5.00;;;2.60;;
12467;SDS011;57850;52.922;6.256;2022-11-09T03:24:42;14.00;;;3.47;;
12467;SDS011;57850;52.922;6.256;2022-11-09T03:27:09;8.98;;;2.83;;
12467;SDS011;57850;52.922;6.256;2022-11-09T03:29:37;10.38;;;2.92;;
12467;SDS011;57850;52.922;6.256;2022-11-09T03:32:03;9.63;;;3.05;;
12467;SDS011;57850;52.922;6.256;2022-11-09T03:34:30;7.40;;;2.80;;
12467;SDS011;57850;52.922;6.256;2022-11-09T03:36:57;16.35;;;3.30;;
12467;SDS011;57850;52.922;6.256;2022-11-09T03:39:23;8.55;;;2.85;;
12467;SDS011;57850;52.922;6.256;2022-11-09T03:41:50;8.88;;;2.30;;
12467;SDS011;57850;52.922;6.256;2022-11-09T03:44:17;10.13;;;3.10;;
12467;SDS011;57850;52.922;6.256;2022-11-09T03:46:45;9.10;;;3.03;;
12467;SDS011;57850;52.922;6.256;2022-11-09T03:49:12;8.15;;;2.47;;
12467;SDS011;57850;52.922;6.256;2022-11-09T03:51:39;8.13;;;2.65;;
12467;SDS011;57850;52.922;6.256;2022-11-09T03:54:05;9.15;;;3.25;;
12467;SDS011;57850;52.922;6.256;2022-11-09T03:56:32;12.45;;;2.72;;
12467;SDS011;57850;52.922;6.256;2022-11-09T03:58:58;12.38;;;2.83;;
12467;SDS011;57850;52.922;6.256;2022-11-09T04:01:25;11.70;;;2.90;;
12467;SDS011;57850;52.922;6.256;2022-11-09T04:03:53;9.52;;;2.22;;
12467;SDS011;57850;52.922;6.256;2022-11-09T04:06:19;7.57;;;2.67;;
12467;SDS011;57850;52.922;6.256;2022-11-09T04:08:46;8.10;;;2.38;;
12467;SDS011;57850;52.922;6.256;2022-11-09T04:11:12;7.38;;;2.40;;
12467;SDS011;57850;52.922;6.256;2022-11-09T04:13:39;6.57;;;2.67;;
12467;SDS011;57850;52.922;6.256;2022-11-09T04:16:05;10.88;;;2.55;;
12467;SDS011;57850;52.922;6.256;2022-11-09T04:18:32;7.55;;;2.60;;
12467;SDS011;57850;52.922;6.256;2022-11-09T04:21:03;9.77;;;2.67;;
12467;SDS011;57850;52.922;6.256;2022-11-09T04:23:29;8.60;;;3.10;;
12467;SDS011;57850;52.922;6.256;2022-11-09T04:25:57;9.98;;;2.50;;
12467;SDS011;57850;52.922;6.256;2022-11-09T04:28:23;9.82;;;3.13;;
12467;SDS011;57850;52.922;6.256;2022-11-09T04:30:50;10.70;;;3.28;;
12467;SDS011;57850;52.922;6.256;2022-11-09T04:33:16;11.50;;;2.63;;
12467;SDS011;57850;52.922;6.256;2022-11-09T04:35:43;11.20;;;2.92;;
12467;SDS011;57850;52.922;6.256;2022-11-09T04:38:12;12.02;;;3.00;;
12467;SDS011;57850;52.922;6.256;2022-11-09T04:40:39;8.57;;;3.08;;
12467;SDS011;57850;52.922;6.256;2022-11-09T04:43:06;10.80;;;2.85;;
12467;SDS011;57850;52.922;6.256;2022-11-09T04:45:36;9.40;;;3.10;;
12467;SDS011;57850;52.922;6.256;2022-11-09T04:48:03;7.85;;;2.90;;
12467;SDS011;57850;52.922;6.256;2022-11-09T04:50:31;12.23;;;3.25;;
12467;SDS011;57850;52.922;6.256;2022-11-09T04:53:02;9.68;;;3.00;;
12467;SDS011;57850;52.922;6.256;2022-11-09T04:55:34;12.05;;;3.25;;
12467;SDS011;57850;52.922;6.256;2022-11-09T04:58:01;7.30;;;2.80;;
12467;SDS011;57850;52.922;6.256;2022-11-09T05:00:28;8.07;;;2.78;;
12467;SDS011;57850;52.922;6.256;2022-11-09T05:02:56;15.05;;;3.33;;
12467;SDS011;57850;52.922;6.256;2022-11-09T05:05:25;7.93;;;2.83;;
12467;SDS011;57850;52.922;6.256;2022-11-09T05:07:54;8.00;;;2.88;;
12467;SDS011;57850;52.922;6.256;2022-11-09T05:10:20;10.50;;;2.88;;
12467;SDS011;57850;52.922;6.256;2022-11-09T05:12:49;9.80;;;2.67;;
12467;SDS011;57850;52.922;6.256;2022-11-09T05:15:15;12.35;;;2.97;;
12467;SDS011;57850;52.922;6.256;2022-11-09T05:17:42;8.55;;;2.70;;
12467;SDS011;57850;52.922;6.256;2022-11-09T05:20:09;12.30;;;3.28;;
12467;SDS011;57850;52.922;6.256;2022-11-09T05:22:39;5.93;;;2.95;;
12467;SDS011;57850;52.922;6.256;2022-11-09T05:25:23;8.63;;;3.00;;
12467;SDS011;57850;52.922;6.256;2022-11-09T05:27:51;7.13;;;2.97;;
12467;SDS011;57850;52.922;6.256;2022-11-09T05:30:18;9.38;;;3.03;;
12467;SDS011;57850;52.922;6.256;2022-11-09T05:32:45;9.63;;;3.03;;
12467;SDS011;57850;52.922;6.256;2022-11-09T05:35:12;7.68;;;2.88;;
12467;SDS011;57850;52.922;6.256;2022-11-09T05:37:38;8.15;;;2.80;;
12467;SDS011;57850;52.922;6.256;2022-11-09T05:40:05;12.77;;;3.13;;
12467;SDS011;57850;52.922;6.256;2022-11-09T05:42:36;10.07;;;3.72;;
12467;SDS011;57850;52.922;6.256;2022-11-09T05:45:05;11.57;;;3.63;;
12467;SDS011;57850;52.922;6.256;2022-11-09T05:47:35;8.90;;;2.78;;
12467;SDS011;57850;52.922;6.256;2022-11-09T05:50:03;8.50;;;2.78;;
12467;SDS011;57850;52.922;6.256;2022-11-09T05:52:31;12.80;;;3.10;;
12467;SDS011;57850;52.922;6.256;2022-11-09T05:54:57;8.38;;;3.08;;
12467;SDS011;57850;52.922;6.256;2022-11-09T05:57:24;8.27;;;2.80;;
12467;SDS011;57850;52.922;6.256;2022-11-09T05:59:52;14.38;;;2.95;;
12467;SDS011;57850;52.922;6.256;2022-11-09T06:02:20;8.95;;;2.70;;
12467;SDS011;57850;52.922;6.256;2022-11-09T06:04:46;10.27;;;2.72;;
12467;SDS011;57850;52.922;6.256;2022-11-09T06:07:13;10.98;;;3.30;;
12467;SDS011;57850;52.922;6.256;2022-11-09T06:09:40;10.85;;;3.03;;
12467;SDS011;57850;52.922;6.256;2022-11-09T06:12:06;11.73;;;2.53;;
12467;SDS011;57850;52.922;6.256;2022-11-09T06:14:33;9.93;;;3.13;;
12467;SDS011;57850;52.922;6.256;2022-11-09T06:17:00;6.57;;;2.65;;
12467;SDS011;57850;52.922;6.256;2022-11-09T06:19:28;9.45;;;2.80;;
12467;SDS011;57850;52.922;6.256;2022-11-09T06:21:54;11.23;;;3.05;;
12467;SDS011;57850;52.922;6.256;2022-11-09T06:24:22;6.22;;;2.83;;
12467;SDS011;57850;52.922;6.256;2022-11-09T06:26:48;11.55;;;2.47;;
12467;SDS011;57850;52.922;6.256;2022-11-09T06:29:15;11.60;;;3.50;;
12467;SDS011;57850;52.922;6.256;2022-11-09T06:31:41;9.65;;;2.80;;
12467;SDS011;57850;52.922;6.256;2022-11-09T06:34:08;11.25;;;2.75;;
12467;SDS011;57850;52.922;6.256;2022-11-09T06:36:36;5.85;;;2.38;;
12467;SDS011;57850;52.922;6.256;2022-11-09T06:39:03;10.48;;;2.75;;
12467;SDS011;57850;52.922;6.256;2022-11-09T06:41:30;9.77;;;2.92;;
12467;SDS011;57850;52.922;6.256;2022-11-09T06:43:57;11.60;;;3.53;;
12467;SDS011;57850;52.922;6.256;2022-11-09T06:46:23;11.35;;;2.80;;
12467;SDS011;57850;52.922;6.256;2022-11-09T06:48:50;7.57;;;3.15;;
12467;SDS011;57850;52.922;6.256;2022-11-09T06:51:17;7.03;;;2.58;;
12467;SDS011;57850;52.922;6.256;2022-11-09T06:53:44;13.05;;;3.15;;
12467;SDS011;57850;52.922;6.256;2022-11-09T06:56:11;10.43;;;2.80;;
12467;SDS011;57850;52.922;6.256;2022-11-09T06:58:38;10.25;;;2.70;;
12467;SDS011;57850;52.922;6.256;2022-11-09T07:01:07;11.52;;;3.15;;
12467;SDS011;57850;52.922;6.256;2022-11-09T07:03:35;10.52;;;2.95;;
12467;SDS011;57850;52.922;6.256;2022-11-09T07:06:03;10.82;;;2.83;;
12467;SDS011;57850;52.922;6.256;2022-11-09T07:08:30;10.73;;;3.03;;
12467;SDS011;57850;52.922;6.256;2022-11-09T07:11:02;10.02;;;2.50;;
12467;SDS011;57850;52.922;6.256;2022-11-09T07:13:29;11.60;;;2.78;;
12467;SDS011;57850;52.922;6.256;2022-11-09T07:15:59;11.00;;;2.80;;
12467;SDS011;57850;52.922;6.256;2022-11-09T07:18:26;11.23;;;3.03;;
12467;SDS011;57850;52.922;6.256;2022-11-09T07:20:53;6.72;;;2.65;;
12467;SDS011;57850;52.922;6.256;2022-11-09T07:23:19;10.60;;;2.95;;
12467;SDS011;57850;52.922;6.256;2022-11-09T07:25:46;9.57;;;2.80;;
12467;SDS011;57850;52.922;6.256;2022-11-09T07:28:14;12.93;;;3.05;;
12467;SDS011;57850;52.922;6.256;2022-11-09T07:30:41;10.15;;;2.40;;
12467;SDS011;57850;52.922;6.256;2022-11-09T07:33:12;12.27;;;2.78;;
12467;SDS011;57850;52.922;6.256;2022-11-09T07:35:42;10.52;;;2.55;;
12467;SDS011;57850;52.922;6.256;2022-11-09T07:38:09;11.82;;;3.33;;
12467;SDS011;57850;52.922;6.256;2022-11-09T07:40:36;13.35;;;3.03;;
12467;SDS011;57850;52.922;6.256;2022-11-09T07:43:03;14.82;;;3.30;;
12467;SDS011;57850;52.922;6.256;2022-11-09T07:45:32;11.40;;;3.13;;
12467;SDS011;57850;52.922;6.256;2022-11-09T07:48:01;9.98;;;3.15;;
12467;SDS011;57850;52.922;6.256;2022-11-09T07:50:29;8.80;;;2.83;;
12467;SDS011;57850;52.922;6.256;2022-11-09T07:52:56;8.88;;;2.67;;
12467;SDS011;57850;52.922;6.256;2022-11-09T07:55:24;11.95;;;3.20;;
12467;SDS011;57850;52.922;6.256;2022-11-09T07:57:53;10.25;;;2.83;;
12467;SDS011;57850;52.922;6.256;2022-11-09T08:00:20;11.35;;;2.75;;
12467;SDS011;57850;52.922;6.256;2022-11-09T08:02:49;9.95;;;2.90;;
12467;SDS011;57850;52.922;6.256;2022-11-09T08:05:15;12.13;;;3.55;;
12467;SDS011;57850;52.922;6.256;2022-11-09T08:07:42;14.25;;;4.25;;
12467;SDS011;57850;52.922;6.256;2022-11-09T08:10:09;12.13;;;3.30;;
12467;SDS011;57850;52.922;6.256;2022-11-09T08:12:35;13.05;;;2.92;;
12467;SDS011;57850;52.922;6.256;2022-11-09T08:15:02;10.75;;;2.65;;
12467;SDS011;57850;52.922;6.256;2022-11-09T08:17:29;9.63;;;2.97;;
12467;SDS011;57850;52.922;6.256;2022-11-09T08:19:57;10.52;;;3.03;;
12467;SDS011;57850;52.922;6.256;2022-11-09T08:22:24;12.40;;;3.40;;
12467;SDS011;57850;52.922;6.256;2022-11-09T08:24:50;10.05;;;3.13;;
12467;SDS011;57850;52.922;6.256;2022-11-09T08:27:17;10.75;;;3.28;;
12467;SDS011;57850;52.922;6.256;2022-11-09T08:29:44;11.85;;;3.08;;
12467;SDS011;57850;52.922;6.256;2022-11-09T08:32:10;7.35;;;2.83;;
12467;SDS011;57850;52.922;6.256;2022-11-09T08:34:37;17.85;;;3.72;;
12467;SDS011;57850;52.922;6.256;2022-11-09T08:37:05;9.02;;;2.97;;
12467;SDS011;57850;52.922;6.256;2022-11-09T08:39:32;12.13;;;3.35;;
12467;SDS011;57850;52.922;6.256;2022-11-09T08:41:58;9.98;;;2.90;;
12467;SDS011;57850;52.922;6.256;2022-11-09T08:44:25;10.75;;;3.55;;
12467;SDS011;57850;52.922;6.256;2022-11-09T08:46:51;11.32;;;3.38;;
12467;SDS011;57850;52.922;6.256;2022-11-09T08:49:18;8.77;;;2.92;;
12467;SDS011;57850;52.922;6.256;2022-11-09T08:51:44;10.35;;;3.10;;
12467;SDS011;57850;52.922;6.256;2022-11-09T08:54:12;10.95;;;3.10;;
12467;SDS011;57850;52.922;6.256;2022-11-09T08:56:39;8.70;;;3.40;;
12467;SDS011;57850;52.922;6.256;2022-11-09T08:59:05;9.23;;;2.53;;
12467;SDS011;57850;52.922;6.256;2022-11-09T09:01:32;12.38;;;3.15;;
12467;SDS011;57850;52.922;6.256;2022-11-09T09:03:58;11.32;;;3.00;;
12467;SDS011;57850;52.922;6.256;2022-11-09T09:06:25;8.18;;;2.92;;
12467;SDS011;57850;52.922;6.256;2022-11-09T09:08:51;10.73;;;3.35;;
12467;SDS011;57850;52.922;6.256;2022-11-09T09:11:19;14.02;;;3.55;;
12467;SDS011;57850;52.922;6.256;2022-11-09T09:13:46;9.90;;;3.17;;
12467;SDS011;57850;52.922;6.256;2022-11-09T09:16:13;11.43;;;3.40;;
12467;SDS011;57850;52.922;6.256;2022-11-09T09:18:41;8.45;;;3.15;;
12467;SDS011;57850;52.922;6.256;2022-11-09T09:21:08;11.75;;;3.40;;
12467;SDS011;57850;52.922;6.256;2022-11-09T09:23:35;11.68;;;3.25;;
12467;SDS011;57850;52.922;6.256;2022-11-09T09:26:02;11.63;;;3.63;;
12467;SDS011;57850;52.922;6.256;2022-11-09T09:28:30;10.63;;;3.35;;
12467;SDS011;57850;52.922;6.256;2022-11-09T09:30:58;21.10;;;5.15;;
12467;SDS011;57850;52.922;6.256;2022-11-09T09:33:25;8.38;;;3.00;;
12467;SDS011;57850;52.922;6.256;2022-11-09T09:35:53;11.43;;;3.58;;
12467;SDS011;57850;52.922;6.256;2022-11-09T09:38:20;8.95;;;3.33;;
12467;SDS011;57850;52.922;6.256;2022-11-09T09:40:49;10.07;;;3.35;;
12467;SDS011;57850;52.922;6.256;2022-11-09T09:43:24;12.07;;;3.38;;
12467;SDS011;57850;52.922;6.256;2022-11-09T09:46:03;10.52;;;3.65;;
12467;SDS011;57850;52.922;6.256;2022-11-09T09:48:35;9.25;;;3.70;;
12467;SDS011;57850;52.922;6.256;2022-11-09T09:51:08;9.32;;;3.15;;
12467;SDS011;57850;52.922;6.256;2022-11-09T09:53:39;10.13;;;3.72;;
12467;SDS011;57850;52.922;6.256;2022-11-09T09:56:11;9.38;;;3.88;;
12467;SDS011;57850;52.922;6.256;2022-11-09T09:58:44;11.13;;;4.00;;
12467;SDS011;57850;52.922;6.256;2022-11-09T10:01:17;9.93;;;3.80;;
12467;SDS011;57850;52.922;6.256;2022-11-09T10:03:46;9.73;;;2.88;;
12467;SDS011;57850;52.922;6.256;2022-11-09T10:06:18;13.68;;;4.50;;
12467;SDS011;57850;52.922;6.256;2022-11-09T10:09:04;10.10;;;3.95;;
12467;SDS011;57850;52.922;6.256;2022-11-09T10:11:42;13.95;;;4.18;;
12467;SDS011;57850;52.922;6.256;2022-11-09T10:17:23;10.35;;;3.58;;
12467;SDS011;57850;52.922;6.256;2022-11-09T10:20:06;12.32;;;3.65;;
12467;SDS011;57850;52.922;6.256;2022-11-09T10:22:45;11.90;;;3.50;;
12467;SDS011;57850;52.922;6.256;2022-11-09T10:25:19;10.82;;;3.95;;
12467;SDS011;57850;52.922;6.256;2022-11-09T10:27:50;9.43;;;4.00;;
12467;SDS011;57850;52.922;6.256;2022-11-09T10:30:20;12.93;;;3.92;;
12467;SDS011;57850;52.922;6.256;2022-11-09T10:32:49;6.10;;;3.53;;
12467;SDS011;57850;52.922;6.256;2022-11-09T10:35:18;9.18;;;4.35;;
12467;SDS011;57850;52.922;6.256;2022-11-09T10:37:47;11.88;;;3.53;;
12467;SDS011;57850;52.922;6.256;2022-11-09T10:40:18;7.50;;;3.10;;
12467;SDS011;57850;52.922;6.256;2022-11-09T10:42:48;10.68;;;3.85;;
12467;SDS011;57850;52.922;6.256;2022-11-09T10:45:17;10.73;;;3.70;;
12467;SDS011;57850;52.922;6.256;2022-11-09T10:47:53;9.60;;;3.22;;
12467;SDS011;57850;52.922;6.256;2022-11-09T10:50:22;13.25;;;3.67;;
12467;SDS011;57850;52.922;6.256;2022-11-09T10:53:05;13.35;;;4.45;;
12467;SDS011;57850;52.922;6.256;2022-11-09T10:55:34;13.85;;;3.80;;
12467;SDS011;57850;52.922;6.256;2022-11-09T11:00:55;13.52;;;4.53;;
12467;SDS011;57850;52.922;6.256;2022-11-09T11:03:24;11.07;;;3.10;;
12467;SDS011;57850;52.922;6.256;2022-11-09T11:05:55;10.02;;;3.78;;
12467;SDS011;57850;52.922;6.256;2022-11-09T11:08:28;9.63;;;3.47;;
12467;SDS011;57850;52.922;6.256;2022-11-09T11:13:49;9.15;;;3.92;;
12467;SDS011;57850;52.922;6.256;2022-11-09T11:16:31;12.63;;;4.50;;
12467;SDS011;57850;52.922;6.256;2022-11-09T11:18:59;13.80;;;4.13;;
12467;SDS011;57850;52.922;6.256;2022-11-09T11:21:26;11.32;;;3.97;;
12467;SDS011;57850;52.922;6.256;2022-11-09T11:24:11;9.32;;;4.07;;
12467;SDS011;57850;52.922;6.256;2022-11-09T11:26:47;10.23;;;3.78;;
12467;SDS011;57850;52.922;6.256;2022-11-09T11:29:26;11.88;;;4.00;;
12467;SDS011;57850;52.922;6.256;2022-11-09T11:31:59;9.10;;;4.10;;
12467;SDS011;57850;52.922;6.256;2022-11-09T11:34:26;9.20;;;4.03;;
12467;SDS011;57850;52.922;6.256;2022-11-09T11:36:57;17.55;;;4.25;;
12467;SDS011;57850;52.922;6.256;2022-11-09T11:39:41;12.80;;;4.07;;
12467;SDS011;57850;52.922;6.256;2022-11-09T11:45:19;9.43;;;4.50;;
12467;SDS011;57850;52.922;6.256;2022-11-09T11:48:00;11.85;;;4.07;;
12467;SDS011;57850;52.922;6.256;2022-11-09T11:50:55;13.25;;;4.40;;
12467;SDS011;57850;52.922;6.256;2022-11-09T11:53:33;12.27;;;4.70;;
12467;SDS011;57850;52.922;6.256;2022-11-09T11:59:10;12.65;;;4.30;;
12467;SDS011;57850;52.922;6.256;2022-11-09T12:02:03;12.45;;;4.68;;
12467;SDS011;57850;52.922;6.256;2022-11-09T12:04:54;13.30;;;3.75;;
12467;SDS011;57850;52.922;6.256;2022-11-09T12:07:40;20.77;;;4.47;;
12467;SDS011;57850;52.922;6.256;2022-11-09T12:10:20;14.38;;;4.45;;
12467;SDS011;57850;52.922;6.256;2022-11-09T12:12:58;10.93;;;4.00;;
12467;SDS011;57850;52.922;6.256;2022-11-09T12:15:31;12.65;;;4.13;;
12467;SDS011;57850;52.922;6.256;2022-11-09T12:18:11;9.85;;;4.22;;
12467;SDS011;57850;52.922;6.256;2022-11-09T12:20:47;11.75;;;3.83;;
12467;SDS011;57850;52.922;6.256;2022-11-09T12:23:26;10.95;;;3.47;;
12467;SDS011;57850;52.922;6.256;2022-11-09T12:26:10;13.70;;;3.92;;
12467;SDS011;57850;52.922;6.256;2022-11-09T12:28:47;10.73;;;4.00;;
12467;SDS011;57850;52.922;6.256;2022-11-09T12:31:33;7.85;;;3.05;;
12467;SDS011;57850;52.922;6.256;2022-11-09T12:34:13;15.27;;;3.40;;
12467;SDS011;57850;52.922;6.256;2022-11-09T12:36:48;12.40;;;3.22;;
12467;SDS011;57850;52.922;6.256;2022-11-09T12:39:21;5.60;;;3.10;;
12467;SDS011;57850;52.922;6.256;2022-11-09T12:41:52;6.68;;;2.83;;
12467;SDS011;57850;52.922;6.256;2022-11-09T12:44:25;7.68;;;3.20;;
12467;SDS011;57850;52.922;6.256;2022-11-09T12:46:55;10.48;;;2.60;;
12467;SDS011;57850;52.922;6.256;2022-11-09T12:49:31;10.60;;;2.88;;
12467;SDS011;57850;52.922;6.256;2022-11-09T12:52:03;9.52;;;3.00;;
12467;SDS011;57850;52.922;6.256;2022-11-09T12:54:31;8.65;;;2.92;;
12467;SDS011;57850;52.922;6.256;2022-11-09T12:56:58;10.73;;;2.47;;
12467;SDS011;57850;52.922;6.256;2022-11-09T12:59:33;7.10;;;3.20;;
12467;SDS011;57850;52.922;6.256;2022-11-09T13:02:01;8.07;;;2.80;;
12467;SDS011;57850;52.922;6.256;2022-11-09T13:04:30;8.43;;;3.15;;
12467;SDS011;57850;52.922;6.256;2022-11-09T13:07:15;11.40;;;3.03;;
12467;SDS011;57850;52.922;6.256;2022-11-09T13:09:46;7.95;;;2.83;;
12467;SDS011;57850;52.922;6.256;2022-11-09T13:12:25;7.10;;;2.67;;
12467;SDS011;57850;52.922;6.256;2022-11-09T13:14:57;6.53;;;2.22;;
12467;SDS011;57850;52.922;6.256;2022-11-09T13:17:50;9.30;;;2.90;;
12467;SDS011;57850;52.922;6.256;2022-11-09T13:23:26;8.73;;;2.60;;
12467;SDS011;57850;52.922;6.256;2022-11-09T13:25:54;10.95;;;2.60;;
12467;SDS011;57850;52.922;6.256;2022-11-09T13:31:09;6.50;;;2.53;;
12467;SDS011;57850;52.922;6.256;2022-11-09T13:33:36;6.43;;;2.50;;
12467;SDS011;57850;52.922;6.256;2022-11-09T13:36:14;6.25;;;1.98;;
12467;SDS011;57850;52.922;6.256;2022-11-09T13:38:44;4.95;;;2.20;;
12467;SDS011;57850;52.922;6.256;2022-11-09T13:44:11;5.82;;;1.75;;
12467;SDS011;57850;52.922;6.256;2022-11-09T13:46:42;4.45;;;1.98;;
12467;SDS011;57850;52.922;6.256;2022-11-09T13:52:03;4.28;;;1.60;;
12467;SDS011;57850;52.922;6.256;2022-11-09T13:54:32;4.32;;;1.50;;
12467;SDS011;57850;52.922;6.256;2022-11-09T13:57:00;5.63;;;1.77;;
12467;SDS011;57850;52.922;6.256;2022-11-09T13:59:30;2.85;;;1.40;;
12467;SDS011;57850;52.922;6.256;2022-11-09T14:02:00;4.65;;;1.77;;
12467;SDS011;57850;52.922;6.256;2022-11-09T14:04:28;5.10;;;1.90;;
12467;SDS011;57850;52.922;6.256;2022-11-09T14:06:59;7.28;;;1.80;;
12467;SDS011;57850;52.922;6.256;2022-11-09T14:09:33;4.30;;;2.00;;
12467;SDS011;57850;52.922;6.256;2022-11-09T14:12:13;4.75;;;1.70;;
12467;SDS011;57850;52.922;6.256;2022-11-09T14:17:43;4.78;;;2.03;;
12467;SDS011;57850;52.922;6.256;2022-11-09T14:20:23;4.70;;;2.03;;
12467;SDS011;57850;52.922;6.256;2022-11-09T14:22:54;5.05;;;2.05;;
12467;SDS011;57850;52.922;6.256;2022-11-09T14:25:22;6.15;;;2.15;;
12467;SDS011;57850;52.922;6.256;2022-11-09T14:27:50;6.75;;;2.00;;
12467;SDS011;57850;52.922;6.256;2022-11-09T14:30:22;8.88;;;2.78;;
12467;SDS011;57850;52.922;6.256;2022-11-09T14:32:50;6.43;;;2.67;;
12467;SDS011;57850;52.922;6.256;2022-11-09T14:35:19;7.97;;;3.92;;
12467;SDS011;57850;52.922;6.256;2022-11-09T14:37:48;9.50;;;3.05;;
12467;SDS011;57850;52.922;6.256;2022-11-09T14:40:16;8.35;;;2.70;;
12467;SDS011;57850;52.922;6.256;2022-11-09T14:42:46;8.77;;;3.30;;
12467;SDS011;57850;52.922;6.256;2022-11-09T14:45:15;7.32;;;2.90;;
12467;SDS011;57850;52.922;6.256;2022-11-09T14:47:43;10.20;;;3.25;;
12467;SDS011;57850;52.922;6.256;2022-11-09T14:50:13;8.73;;;3.25;;
12467;SDS011;57850;52.922;6.256;2022-11-09T14:52:42;7.80;;;3.08;;
12467;SDS011;57850;52.922;6.256;2022-11-09T14:55:10;9.07;;;3.17;;
12467;SDS011;57850;52.922;6.256;2022-11-09T14:57:38;10.93;;;3.60;;
12467;SDS011;57850;52.922;6.256;2022-11-09T15:02:51;11.63;;;4.63;;
12467;SDS011;57850;52.922;6.256;2022-11-09T15:05:30;12.18;;;3.47;;
12467;SDS011;57850;52.922;6.256;2022-11-09T15:08:03;6.07;;;3.78;;
12467;SDS011;57850;52.922;6.256;2022-11-09T15:10:30;8.57;;;3.38;;
12467;SDS011;57850;52.922;6.256;2022-11-09T15:12:59;7.55;;;3.88;;
12467;SDS011;57850;52.922;6.256;2022-11-09T15:15:30;10.25;;;2.92;;
12467;SDS011;57850;52.922;6.256;2022-11-09T15:17:59;8.15;;;3.10;;
12467;SDS011;57850;52.922;6.256;2022-11-09T15:20:28;9.65;;;3.75;;
12467;SDS011;57850;52.922;6.256;2022-11-09T15:22:57;7.05;;;2.92;;
12467;SDS011;57850;52.922;6.256;2022-11-09T15:25:27;8.23;;;3.00;;